createdAt,value
2018-08-11T00:01:48.856Z,3.37
2018-08-11T00:04:16.030Z,5.12
2018-08-11T00:06:43.227Z,1.30
2018-08-11T00:09:11.452Z,1.45
2018-08-11T00:11:38.726Z,1.30
2018-08-11T00:14:06.028Z,2.37
2018-08-11T00:16:33.220Z,7.47
2018-08-11T00:19:00.407Z,2.10
2018-08-11T00:21:27.596Z,1.27
2018-08-11T00:23:54.768Z,1.50
2018-08-11T00:26:21.945Z,1.60
2018-08-11T00:28:49.151Z,1.92
2018-08-11T00:31:16.341Z,2.30
2018-08-11T00:33:43.510Z,1.47
2018-08-11T00:36:10.700Z,1.82
2018-08-11T00:38:37.866Z,1.10
2018-08-11T00:41:05.072Z,3.05
2018-08-11T00:43:32.261Z,2.02
2018-08-11T00:45:59.451Z,1.60
2018-08-11T00:48:26.644Z,2.05
2018-08-11T00:50:53.814Z,1.72
2018-08-11T00:53:21.017Z,1.50
2018-08-11T00:55:48.191Z,1.52
2018-08-11T00:58:15.372Z,2.45
2018-08-11T01:00:42.663Z,1.70
2018-08-11T01:03:09.859Z,1.40
2018-08-11T01:05:37.026Z,2.15
2018-08-11T01:08:04.226Z,1.77
2018-08-11T01:10:31.404Z,6.40
2018-08-11T01:12:58.600Z,1.85
2018-08-11T01:15:25.776Z,1.55
2018-08-11T01:17:53.077Z,1.75
2018-08-11T01:20:20.291Z,1.82
2018-08-11T01:22:47.988Z,2.85
2018-08-11T01:25:15.431Z,3.45
2018-08-11T01:27:42.627Z,2.87
2018-08-11T01:30:12.650Z,1.80
2018-08-11T01:32:39.850Z,2.00
2018-08-11T01:35:07.940Z,2.37
2018-08-11T01:37:35.406Z,1.90
2018-08-11T01:40:02.584Z,2.10
2018-08-11T01:42:29.755Z,3.42
2018-08-11T01:44:56.939Z,3.90
2018-08-11T01:47:24.097Z,1.60
2018-08-11T01:49:51.278Z,1.90
2018-08-11T01:52:18.523Z,2.42
2018-08-11T01:54:45.703Z,3.92
2018-08-11T01:57:12.874Z,2.20
2018-08-11T01:59:40.071Z,1.70
2018-08-11T02:02:07.268Z,2.95
2018-08-11T02:04:34.542Z,2.15
2018-08-11T02:07:01.720Z,2.67
2018-08-11T02:09:28.899Z,5.33
2018-08-11T02:11:56.075Z,2.90
2018-08-11T02:14:23.247Z,2.17
2018-08-11T02:16:50.426Z,2.27
2018-08-11T02:19:17.607Z,3.72
2018-08-11T02:21:44.787Z,2.80
2018-08-11T02:24:11.979Z,2.90
2018-08-11T02:26:39.151Z,3.22
2018-08-11T02:29:06.341Z,3.98
2018-08-11T02:31:33.581Z,3.30
2018-08-11T02:34:00.743Z,3.90
2018-08-11T02:36:27.918Z,4.15
2018-08-11T02:38:55.095Z,3.90
2018-08-11T02:41:22.279Z,3.77
2018-08-11T02:43:49.467Z,3.83
2018-08-11T02:46:16.642Z,3.00
2018-08-11T02:48:43.806Z,3.70
2018-08-11T02:51:10.995Z,3.25
2018-08-11T02:53:38.174Z,3.80
2018-08-11T02:56:05.365Z,4.83
2018-08-11T02:58:32.543Z,4.87
2018-08-11T03:00:59.707Z,4.95
2018-08-11T03:03:26.898Z,4.20
2018-08-11T03:05:54.067Z,6.50
2018-08-11T03:08:21.249Z,4.85
2018-08-11T03:10:48.429Z,2.67
2018-08-11T03:13:15.609Z,4.83
2018-08-11T03:15:42.818Z,5.47
2018-08-11T03:18:09.990Z,4.85
2018-08-11T03:20:37.162Z,3.30
2018-08-11T03:23:04.326Z,5.83
2018-08-11T03:25:31.506Z,4.90
2018-08-11T03:27:58.677Z,4.75
2018-08-11T03:30:25.848Z,5.55
2018-08-11T03:32:53.018Z,6.78
2018-08-11T03:35:20.186Z,4.70
2018-08-11T03:37:47.379Z,9.45
2018-08-11T03:40:14.542Z,5.17
2018-08-11T03:42:42.382Z,4.85
2018-08-11T03:45:09.581Z,5.67
2018-08-11T03:47:36.833Z,6.17
2018-08-11T03:50:04.437Z,5.75
2018-08-11T03:52:31.695Z,5.30
2018-08-11T03:54:58.836Z,5.25
2018-08-11T03:57:26.015Z,5.40
2018-08-11T03:59:53.178Z,5.30
2018-08-11T04:02:20.365Z,5.62
2018-08-11T04:04:47.521Z,6.47
2018-08-11T04:07:14.694Z,5.60
2018-08-11T04:09:41.880Z,5.53
2018-08-11T04:12:09.041Z,5.60
2018-08-11T04:14:36.205Z,7.08
2018-08-11T04:17:03.387Z,5.15
2018-08-11T04:19:30.566Z,5.87
2018-08-11T04:21:57.719Z,8.80
2018-08-11T04:24:24.895Z,11.60
2018-08-11T04:26:52.088Z,5.87
2018-08-11T04:29:19.272Z,6.75
2018-08-11T04:31:46.447Z,8.25
2018-08-11T04:34:13.627Z,6.55
2018-08-11T04:36:40.799Z,6.33
2018-08-11T04:39:08.484Z,7.50
2018-08-11T04:41:35.772Z,7.37
2018-08-11T04:44:02.959Z,6.97
2018-08-11T04:46:30.141Z,7.65
2018-08-11T04:48:57.321Z,7.40
2018-08-11T04:51:24.510Z,9.90
2018-08-11T04:53:51.690Z,5.40
2018-08-11T04:56:18.851Z,7.17
2018-08-11T04:58:46.035Z,6.78
2018-08-11T05:01:13.207Z,7.00
2018-08-11T05:03:40.394Z,7.97
2018-08-11T05:06:07.565Z,7.03
2018-08-11T05:08:34.834Z,6.85
2018-08-11T05:11:02.036Z,6.87
2018-08-11T05:13:29.208Z,7.33
2018-08-11T05:15:56.408Z,5.90
2018-08-11T05:18:23.577Z,6.35
2018-08-11T05:20:50.746Z,6.65
2018-08-11T05:23:17.927Z,7.40
2018-08-11T05:25:45.168Z,6.45
2018-08-11T05:28:12.356Z,7.10
2018-08-11T05:30:39.539Z,6.95
2018-08-11T05:33:06.861Z,7.12
2018-08-11T05:35:34.072Z,7.05
2018-08-11T05:38:01.251Z,6.60
2018-08-11T05:40:28.440Z,6.75
2018-08-11T05:42:55.608Z,5.53
2018-08-11T05:45:22.769Z,7.35
2018-08-11T05:47:49.983Z,7.55
2018-08-11T05:50:17.190Z,5.30
2018-08-11T05:52:44.571Z,5.97
2018-08-11T05:55:11.765Z,6.58
2018-08-11T05:57:38.935Z,5.40
2018-08-11T06:00:07.005Z,5.20
2018-08-11T06:02:34.170Z,4.87
2018-08-11T06:05:01.343Z,4.78
2018-08-11T06:07:28.528Z,5.10
2018-08-11T06:09:55.695Z,5.15
2018-08-11T06:12:22.857Z,5.67
2018-08-11T06:14:50.063Z,5.22
2018-08-11T06:17:17.245Z,6.08
2018-08-11T06:19:44.432Z,4.50
2018-08-11T06:22:11.632Z,4.87
2018-08-11T06:24:38.798Z,4.45
2018-08-11T06:27:05.984Z,4.28
2018-08-11T06:29:33.150Z,6.97
2018-08-11T06:32:00.357Z,3.30
2018-08-11T06:34:27.540Z,3.95
2018-08-11T06:36:54.718Z,4.20
2018-08-11T06:39:21.907Z,3.33
2018-08-11T06:41:49.108Z,5.40
2018-08-11T06:44:16.279Z,3.87
2018-08-11T06:46:43.549Z,3.10
2018-08-11T06:49:10.717Z,4.65
2018-08-11T06:51:37.990Z,2.52
2018-08-11T06:54:05.276Z,4.45
2018-08-11T06:56:32.471Z,1.67
2018-08-11T06:58:59.636Z,2.02
2018-08-11T07:01:26.818Z,3.55
2018-08-11T07:03:53.989Z,1.75
2018-08-11T07:06:21.329Z,5.17
2018-08-11T07:08:48.514Z,1.85
2018-08-11T07:11:15.700Z,2.35
2018-08-11T07:13:42.887Z,1.98
2018-08-11T07:16:10.080Z,1.60
2018-08-11T07:18:37.259Z,2.12
2018-08-11T07:21:04.433Z,2.65
2018-08-11T07:23:31.635Z,2.47
2018-08-11T07:25:58.802Z,1.57
2018-08-11T07:28:25.980Z,3.25
2018-08-11T07:30:53.167Z,1.95
2018-08-11T07:33:20.382Z,2.55
2018-08-11T07:35:47.604Z,1.65
2018-08-11T07:38:14.779Z,1.92
2018-08-11T07:40:41.991Z,4.12
2018-08-11T07:43:09.202Z,1.45
2018-08-11T07:45:36.390Z,1.85
2018-08-11T07:48:03.595Z,1.40
2018-08-11T07:50:30.891Z,1.55
2018-08-11T07:52:58.049Z,6.42
2018-08-11T07:55:25.215Z,1.55
2018-08-11T07:57:52.415Z,6.42
2018-08-11T08:00:19.593Z,2.83
2018-08-11T08:02:46.771Z,2.80
2018-08-11T08:05:13.951Z,4.10
2018-08-11T08:07:41.126Z,3.75
2018-08-11T08:10:08.314Z,2.25
2018-08-11T08:12:35.555Z,3.72
2018-08-11T08:15:02.743Z,5.70
2018-08-11T08:17:29.926Z,2.15
2018-08-11T08:19:57.099Z,3.50
2018-08-11T08:22:24.458Z,1.65
2018-08-11T08:24:51.764Z,1.67
2018-08-11T08:27:18.954Z,2.25
2018-08-11T08:29:46.125Z,2.27
2018-08-11T08:32:13.356Z,3.70
2018-08-11T08:34:40.540Z,2.37
2018-08-11T08:37:07.729Z,1.92
2018-08-11T08:39:34.917Z,2.42
2018-08-11T08:42:02.128Z,2.77
2018-08-11T08:44:29.327Z,1.35
2018-08-11T08:46:56.523Z,1.22
2018-08-11T08:49:23.707Z,0.80
2018-08-11T08:51:50.903Z,4.10
2018-08-11T08:54:18.090Z,1.37
2018-08-11T08:56:45.368Z,4.40
2018-08-11T08:59:12.622Z,2.05
2018-08-11T09:01:39.767Z,2.62
2018-08-11T09:04:06.938Z,3.72
2018-08-11T09:06:34.136Z,1.72
2018-08-11T09:09:01.301Z,2.58
2018-08-11T09:11:28.499Z,1.75
2018-08-11T09:13:55.684Z,1.00
2018-08-11T09:16:22.874Z,6.50
2018-08-11T09:18:50.054Z,2.02
2018-08-11T09:21:17.242Z,2.62
2018-08-11T09:23:44.421Z,1.50
2018-08-11T09:26:11.614Z,5.03
2018-08-11T09:28:38.808Z,2.40
2018-08-11T09:31:06.075Z,7.00
2018-08-11T09:33:33.279Z,3.37
2018-08-11T09:36:00.454Z,6.72
2018-08-11T09:38:27.683Z,3.52
2018-08-11T09:40:54.867Z,1.77
2018-08-11T09:43:22.034Z,2.55
2018-08-11T09:45:49.253Z,1.95
2018-08-11T09:48:16.418Z,2.98
2018-08-11T09:50:43.594Z,2.58
2018-08-11T09:53:10.831Z,2.47
2018-08-11T09:55:38.052Z,5.72
2018-08-11T09:58:05.237Z,2.60
2018-08-11T10:00:37.973Z,4.28
2018-08-11T10:03:05.183Z,4.05
2018-08-11T10:05:32.367Z,1.87
2018-08-11T10:07:59.534Z,3.92
2018-08-11T10:10:26.727Z,2.17
2018-08-11T10:12:53.914Z,2.25
2018-08-11T10:15:21.109Z,2.00
2018-08-11T10:17:48.295Z,2.70
2018-08-11T10:20:15.476Z,4.45
2018-08-11T10:22:42.671Z,4.85
2018-08-11T10:25:09.871Z,4.92
2018-08-11T10:27:37.069Z,4.50
2018-08-11T10:30:05.118Z,2.20
2018-08-11T10:32:32.307Z,3.72
2018-08-11T10:34:59.486Z,1.87
2018-08-11T10:37:26.653Z,1.37
2018-08-11T10:39:53.870Z,2.35
2018-08-11T10:42:21.033Z,2.27
2018-08-11T10:44:48.219Z,2.02
2018-08-11T10:47:15.394Z,1.77
2018-08-11T10:49:42.562Z,2.62
2018-08-11T10:52:09.745Z,5.90
2018-08-11T10:54:36.931Z,3.80
2018-08-11T10:57:04.113Z,1.35
2018-08-11T10:59:31.297Z,2.72
2018-08-11T11:01:58.483Z,1.32
2018-08-11T11:04:25.660Z,2.25
2018-08-11T11:06:52.858Z,1.98
2018-08-11T11:09:20.037Z,3.08
2018-08-11T11:11:47.207Z,1.50
2018-08-11T11:14:14.400Z,1.65
2018-08-11T11:16:41.609Z,2.25
2018-08-11T11:19:08.806Z,3.08
2018-08-11T11:21:36.012Z,1.25
2018-08-11T11:24:03.187Z,3.72
2018-08-11T11:26:30.404Z,3.47
2018-08-11T11:28:57.606Z,2.05
2018-08-11T11:31:24.785Z,4.28
2018-08-11T11:33:51.993Z,1.32
2018-08-11T11:36:19.173Z,5.33
2018-08-11T11:38:46.353Z,4.97
2018-08-11T11:41:13.758Z,1.15
2018-08-11T11:43:40.923Z,1.80
2018-08-11T11:46:08.106Z,0.80
2018-08-11T11:48:35.312Z,2.87
2018-08-11T11:51:02.496Z,2.55
2018-08-11T11:53:29.766Z,1.00
2018-08-11T11:55:56.938Z,5.45
2018-08-11T11:58:24.131Z,3.65
2018-08-11T12:00:51.310Z,0.72
2018-08-11T12:03:18.497Z,0.95
2018-08-11T12:05:45.726Z,3.55
2018-08-11T12:08:12.887Z,3.65
2018-08-11T12:10:40.058Z,1.55
2018-08-11T12:13:07.244Z,4.25
2018-08-11T12:15:34.423Z,2.77
2018-08-11T12:18:01.611Z,2.12
2018-08-11T12:20:28.781Z,1.50
2018-08-11T12:22:55.975Z,2.12
2018-08-11T12:25:23.154Z,2.13
2018-08-11T12:27:50.338Z,1.43
2018-08-11T12:30:17.523Z,1.17
2018-08-11T12:32:44.704Z,2.47
2018-08-11T12:35:11.885Z,2.30
2018-08-11T12:37:39.058Z,2.40
2018-08-11T12:40:06.350Z,1.60
2018-08-11T12:42:33.555Z,0.93
2018-08-11T12:45:00.731Z,1.77
2018-08-11T12:47:27.894Z,1.07
2018-08-11T12:49:55.073Z,1.07
2018-08-11T12:52:22.268Z,1.42
2018-08-11T12:54:49.467Z,0.60
2018-08-11T12:57:16.642Z,1.50
2018-08-11T12:59:43.823Z,1.97
2018-08-11T13:02:10.997Z,3.73
2018-08-11T13:04:38.174Z,6.77
2018-08-11T13:07:05.916Z,3.80
2018-08-11T13:09:33.035Z,5.50
2018-08-11T13:12:00.219Z,1.27
2018-08-11T13:14:27.402Z,2.40
2018-08-11T13:16:54.569Z,1.73
2018-08-11T13:19:21.746Z,4.43
2018-08-11T13:21:48.910Z,2.23
2018-08-11T13:24:16.942Z,2.30
2018-08-11T13:26:44.110Z,2.63
2018-08-11T13:29:11.565Z,2.10
2018-08-11T13:31:38.778Z,2.77
2018-08-11T13:34:05.989Z,2.03
2018-08-11T13:36:33.161Z,0.60
2018-08-11T13:39:00.350Z,1.20
2018-08-11T13:41:32.048Z,1.80
2018-08-11T13:43:59.206Z,0.90
2018-08-11T13:46:26.373Z,1.90
2018-08-11T13:48:53.554Z,1.10
2018-08-11T13:51:20.769Z,1.50
2018-08-11T13:53:47.944Z,0.80
2018-08-11T13:56:15.135Z,3.63
2018-08-11T13:58:42.312Z,1.40
2018-08-11T14:01:09.523Z,2.60
2018-08-11T14:03:36.712Z,0.93
2018-08-11T14:06:03.898Z,0.77
2018-08-11T14:08:31.098Z,1.17
2018-08-11T14:10:58.320Z,0.83
2018-08-11T14:13:25.515Z,2.00
2018-08-11T14:15:52.708Z,1.07
2018-08-11T14:18:19.923Z,1.43
2018-08-11T14:20:47.128Z,1.60
2018-08-11T14:23:14.327Z,1.43
2018-08-11T14:25:41.529Z,0.80
2018-08-11T14:28:08.731Z,1.03
2018-08-11T14:30:35.927Z,3.03
2018-08-11T14:33:03.108Z,1.57
2018-08-11T14:35:30.286Z,3.27
2018-08-11T14:37:57.479Z,2.30
2018-08-11T14:40:24.646Z,1.00
2018-08-11T14:42:51.854Z,0.60
2018-08-11T14:45:19.569Z,1.03
2018-08-11T14:47:46.789Z,1.70
2018-08-11T14:50:13.976Z,1.27
2018-08-11T14:52:41.170Z,1.30
2018-08-11T14:55:08.389Z,1.33
2018-08-11T14:57:35.613Z,2.93
2018-08-11T15:00:02.839Z,1.07
2018-08-11T15:02:30.010Z,2.00
2018-08-11T15:04:57.598Z,1.00
2018-08-11T15:07:24.819Z,0.90
2018-08-11T15:09:52.079Z,0.90
2018-08-11T15:12:19.238Z,1.40
2018-08-11T15:14:46.431Z,1.03
2018-08-11T15:17:13.651Z,2.50
2018-08-11T15:19:40.864Z,1.93
2018-08-11T15:22:08.072Z,2.90
2018-08-11T15:24:35.242Z,1.20
2018-08-11T15:27:02.442Z,2.93
2018-08-11T15:29:29.643Z,0.80
2018-08-11T15:31:56.843Z,0.70
2018-08-11T15:34:24.044Z,1.57
2018-08-11T15:36:51.245Z,2.03
2018-08-11T15:39:18.467Z,0.87
2018-08-11T15:41:45.644Z,1.00
2018-08-11T15:44:12.878Z,0.70
2018-08-11T15:46:40.063Z,1.87
2018-08-11T15:49:07.263Z,1.20
2018-08-11T15:51:34.550Z,3.10
2018-08-11T15:54:01.766Z,1.43
2018-08-11T15:56:28.951Z,1.97
2018-08-11T15:58:56.132Z,1.10
2018-08-11T16:01:23.521Z,1.47
2018-08-11T16:03:50.708Z,2.00
2018-08-11T16:06:17.926Z,2.20
2018-08-11T16:08:45.183Z,0.93
2018-08-11T16:11:12.368Z,1.70
2018-08-11T16:13:39.554Z,0.80
2018-08-11T16:16:06.763Z,1.10
2018-08-11T16:18:33.962Z,1.33
2018-08-11T16:21:01.252Z,0.93
2018-08-11T16:23:28.459Z,1.87
2018-08-11T16:25:55.665Z,0.93
2018-08-11T16:28:22.863Z,1.10
2018-08-11T16:30:50.051Z,1.83
2018-08-11T16:33:17.249Z,1.10
2018-08-11T16:35:44.448Z,1.10
2018-08-11T16:38:11.721Z,1.77
2018-08-11T16:40:38.945Z,2.47
2018-08-11T16:43:06.127Z,1.10
2018-08-11T16:45:33.334Z,0.88
2018-08-11T16:48:00.665Z,2.08
2018-08-11T16:50:27.738Z,1.02
2018-08-11T16:52:54.952Z,1.82
2018-08-11T16:55:22.146Z,6.58
2018-08-11T16:57:49.361Z,0.82
2018-08-11T17:00:16.590Z,3.65
2018-08-11T17:02:43.987Z,1.30
2018-08-11T17:05:11.359Z,1.95
2018-08-11T17:07:38.522Z,3.80
2018-08-11T17:10:06.451Z,1.57
2018-08-11T17:12:33.647Z,1.90
2018-08-11T17:15:01.040Z,4.80
2018-08-11T17:17:28.197Z,1.77
2018-08-11T17:19:55.415Z,4.40
2018-08-11T17:22:22.602Z,1.75
2018-08-11T17:24:49.794Z,0.93
2018-08-11T17:27:17.011Z,2.15
2018-08-11T17:29:44.180Z,2.10
2018-08-11T17:32:11.402Z,7.10
2018-08-11T17:34:38.593Z,2.05
2018-08-11T17:37:05.790Z,2.80
2018-08-11T17:39:32.958Z,2.98
2018-08-11T17:42:00.167Z,3.77
2018-08-11T17:44:27.383Z,2.08
2018-08-11T17:46:54.591Z,2.95
2018-08-11T17:49:21.784Z,1.32
2018-08-11T17:51:48.984Z,1.40
2018-08-11T17:54:16.186Z,2.12
2018-08-11T17:56:43.380Z,6.75
2018-08-11T17:59:10.552Z,2.30
2018-08-11T18:01:37.752Z,7.12
2018-08-11T18:04:04.921Z,1.80
2018-08-11T18:06:32.115Z,1.45
2018-08-11T18:08:59.301Z,2.20
2018-08-11T18:11:26.483Z,1.98
2018-08-11T18:13:53.671Z,1.55
2018-08-11T18:16:20.849Z,2.00
2018-08-11T18:18:48.053Z,1.57
2018-08-11T18:21:15.249Z,1.52
2018-08-11T18:23:42.431Z,1.72
2018-08-11T18:26:09.614Z,1.70
2018-08-11T18:28:36.825Z,1.75
2018-08-11T18:31:04.012Z,3.67
2018-08-11T18:33:31.218Z,2.70
2018-08-11T18:35:58.398Z,5.10
2018-08-11T18:38:25.566Z,2.40
2018-08-11T18:40:52.777Z,1.80
2018-08-11T18:43:19.978Z,6.85
2018-08-11T18:45:47.145Z,2.45
2018-08-11T18:48:14.329Z,2.95
2018-08-11T18:50:41.641Z,2.20
2018-08-11T18:53:08.818Z,5.53
2018-08-11T18:55:36.023Z,2.20
2018-08-11T18:58:03.214Z,3.00
2018-08-11T19:00:30.420Z,3.50
2018-08-11T19:02:57.601Z,3.42
2018-08-11T19:05:24.808Z,3.47
2018-08-11T19:07:52.009Z,2.37
2018-08-11T19:10:19.231Z,3.80
2018-08-11T19:12:46.418Z,4.33
2018-08-11T19:15:14.011Z,2.47
2018-08-11T19:17:41.219Z,2.98
2018-08-11T19:20:10.209Z,3.00
2018-08-11T19:22:37.547Z,4.72
2018-08-11T19:25:05.248Z,2.75
2018-08-11T19:27:32.786Z,4.03
2018-08-11T19:30:00.120Z,2.77
2018-08-11T19:32:27.285Z,4.30
2018-08-11T19:34:54.479Z,3.60
2018-08-11T19:37:21.661Z,2.98
2018-08-11T19:39:48.846Z,2.40
2018-08-11T19:42:16.040Z,3.15
2018-08-11T19:44:43.206Z,4.03
2018-08-11T19:47:10.391Z,5.03
2018-08-11T19:49:37.586Z,1.70
2018-08-11T19:52:04.790Z,1.77
2018-08-11T19:54:32.128Z,2.75
2018-08-11T19:56:59.302Z,1.85
2018-08-11T19:59:26.479Z,3.08
2018-08-11T20:01:53.666Z,4.30
2018-08-11T20:04:20.851Z,2.25
2018-08-11T20:06:48.058Z,2.02
2018-08-11T20:09:15.243Z,5.28
2018-08-11T20:11:42.420Z,3.95
2018-08-11T20:14:09.953Z,3.35
2018-08-11T20:16:37.165Z,2.55
2018-08-11T20:19:04.613Z,3.85
2018-08-11T20:21:31.763Z,5.87
2018-08-11T20:23:58.931Z,3.27
2018-08-11T20:26:26.102Z,3.92
2018-08-11T20:28:53.325Z,2.90
2018-08-11T20:31:20.503Z,3.10
2018-08-11T20:33:47.705Z,3.83
2018-08-11T20:36:14.882Z,4.15
2018-08-11T20:38:42.124Z,3.80
2018-08-11T20:41:09.351Z,4.17
2018-08-11T20:43:36.470Z,3.90
2018-08-11T20:46:03.643Z,5.47
2018-08-11T20:48:30.815Z,6.67
2018-08-11T20:50:58.007Z,17.65
2018-08-11T20:53:25.219Z,20.08
2018-08-11T20:55:52.410Z,13.20
2018-08-11T20:58:19.608Z,14.25
2018-08-11T21:00:46.786Z,8.15
2018-08-11T21:03:13.968Z,4.22
2018-08-11T21:05:41.149Z,4.62
2018-08-11T21:08:08.335Z,5.92
2018-08-11T21:10:35.519Z,2.60
2018-08-11T21:13:02.851Z,2.47
2018-08-11T21:15:30.081Z,2.75
2018-08-11T21:17:57.256Z,3.90
2018-08-11T21:20:24.448Z,2.58
2018-08-11T21:22:51.628Z,2.65
2018-08-11T21:25:18.822Z,1.65
2018-08-11T21:27:45.992Z,4.70
2018-08-11T21:30:13.935Z,4.28
2018-08-11T21:32:41.406Z,3.90
2018-08-11T21:35:08.619Z,3.30
2018-08-11T21:37:35.807Z,3.20
2018-08-11T21:40:03.052Z,3.30
2018-08-11T21:42:30.228Z,5.72
2018-08-11T21:44:57.419Z,3.62
2018-08-11T21:47:24.582Z,3.00
2018-08-11T21:49:51.794Z,3.33
2018-08-11T21:52:18.988Z,4.28
2018-08-11T21:54:46.173Z,2.10
2018-08-11T21:57:13.334Z,3.55
2018-08-11T21:59:40.527Z,4.08
2018-08-11T22:02:07.704Z,2.58
2018-08-11T22:04:35.587Z,2.50
2018-08-11T22:07:04.893Z,2.60
2018-08-11T22:09:32.068Z,5.87
2018-08-11T22:11:59.282Z,2.90
2018-08-11T22:14:26.461Z,2.52
2018-08-11T22:16:53.647Z,2.30
2018-08-11T22:19:20.810Z,2.98
2018-08-11T22:21:48.012Z,3.02
2018-08-11T22:24:15.194Z,3.25
2018-08-11T22:26:42.390Z,2.67
2018-08-11T22:29:09.570Z,5.80
2018-08-11T22:31:36.726Z,4.58
2018-08-11T22:34:03.901Z,2.62
2018-08-11T22:36:31.080Z,2.95
2018-08-11T22:38:58.246Z,2.90
2018-08-11T22:41:25.441Z,2.10
2018-08-11T22:43:52.651Z,4.62
2018-08-11T22:46:19.837Z,9.03
2018-08-11T22:48:47.004Z,3.25
2018-08-11T22:51:14.358Z,5.28
2018-08-11T22:53:41.547Z,2.42
2018-08-11T22:56:08.714Z,6.90
2018-08-11T22:58:35.899Z,2.90
2018-08-11T23:01:03.061Z,3.52
2018-08-11T23:03:30.238Z,3.95
2018-08-11T23:05:57.427Z,3.15
2018-08-11T23:08:24.627Z,4.37
2018-08-11T23:10:51.828Z,2.52
2018-08-11T23:13:18.999Z,2.75
2018-08-11T23:15:46.179Z,4.00
2018-08-11T23:18:13.356Z,2.30
2018-08-11T23:20:40.526Z,3.45
2018-08-11T23:23:07.844Z,3.30
2018-08-11T23:25:35.031Z,3.60
2018-08-11T23:28:02.251Z,3.45
2018-08-11T23:30:29.422Z,3.40
2018-08-11T23:32:56.602Z,2.75
2018-08-11T23:35:23.797Z,2.55
2018-08-11T23:37:50.972Z,3.27
2018-08-11T23:40:18.171Z,2.95
2018-08-11T23:42:45.364Z,3.30
2018-08-11T23:45:13.939Z,6.22
2018-08-11T23:47:41.493Z,3.37
2018-08-11T23:50:09.361Z,2.60
2018-08-11T23:52:36.543Z,4.22
2018-08-11T23:55:04.424Z,3.05
2018-08-11T23:57:31.599Z,3.25
2018-08-11T23:59:58.804Z,5.78
